Time;durP1;ratioP1;P1;durP2;ratioP2;P2;SDS_P1;SDS_P2;PMS_P1;PMS_P2;Temp;Humidity;BMP_temperature;BMP_pressure;BME280_temperature;BME280_humidity;BME280_pressure;Samples;Min_cycle;Max_cycle;Signal;HPM_P1;HPM_P2
2021/06/30 00:01:58;;;;;;;20.53;19.00;;;17.80;88.20;;;;;;5051034;28;20472;-78
2021/06/30 00:04:26;;;;;;;20.50;18.97;;;17.80;88.30;;;;;;5061688;28;21010;-76
2021/06/30 00:06:54;;;;;;;19.40;18.40;;;17.80;88.40;;;;;;5062769;28;20478;-76
2021/06/30 00:09:22;;;;;;;19.27;18.03;;;17.80;88.70;;;;;;5049920;28;20582;-79
2021/06/30 00:11:48;;;;;;;19.37;18.37;;;17.90;88.60;;;;;;5062405;28;20465;-78
2021/06/30 00:14:15;;;;;;;20.40;19.20;;;17.80;88.60;;;;;;5064188;28;20474;-76
2021/06/30 00:16:43;;;;;;;19.50;18.50;;;17.80;88.60;;;;;;5056926;28;20459;-77
2021/06/30 00:19:11;;;;;;;19.60;18.50;;;17.80;88.20;;;;;;5062375;28;21242;-75
2021/06/30 00:21:39;;;;;;;20.03;18.93;;;17.70;88.50;;;;;;5062873;28;20468;-76
2021/06/30 00:24:08;;;;;;;18.90;18.00;;;17.70;88.60;;;;;;5062597;28;20916;-78
2021/06/30 00:26:35;;;;;;;19.27;18.37;;;17.70;88.80;;;;;;5059285;28;21002;-77
2021/06/30 00:29:02;;;;;;;19.40;18.50;;;17.60;88.90;;;;;;5060191;28;20879;-75
2021/06/30 00:31:29;;;;;;;19.17;18.27;;;17.60;88.70;;;;;;5050867;28;20921;-77
2021/06/30 00:33:56;;;;;;;19.07;18.10;;;17.60;88.90;;;;;;5058493;28;20840;-76
2021/06/30 00:36:23;;;;;;;19.03;18.03;;;17.60;88.90;;;;;;5056239;28;20473;-77
2021/06/30 00:38:50;;;;;;;19.23;17.93;;;17.60;89.20;;;;;;5057530;28;20458;-78
2021/06/30 00:41:18;;;;;;;20.10;18.60;;;17.60;89.10;;;;;;5052418;28;20454;-75
2021/06/30 00:43:45;;;;;;;18.43;17.63;;;17.70;88.80;;;;;;5058523;28;20460;-74
2021/06/30 00:46:12;;;;;;;18.97;18.07;;;17.80;88.70;;;;;;5064252;28;20509;-74
2021/06/30 00:48:40;;;;;;;19.53;18.53;;;17.80;88.20;;;;;;5059658;28;20872;-73
2021/06/30 00:51:07;;;;;;;19.53;18.43;;;17.80;88.00;;;;;;5048317;28;20457;-74
2021/06/30 00:53:34;;;;;;;20.30;19.30;;;17.70;87.80;;;;;;5058355;28;20584;-74
2021/06/30 00:56:01;;;;;;;19.67;18.67;;;17.80;87.40;;;;;;5060208;28;20454;-74
2021/06/30 00:58:29;;;;;;;19.90;18.80;;;17.80;86.80;;;;;;5050547;28;20462;-74
2021/06/30 01:00:56;;;;;;;19.50;18.60;;;17.80;86.80;;;;;;5059014;28;20820;-74
2021/06/30 01:03:23;;;;;;;19.67;18.77;;;17.90;86.50;;;;;;5052217;28;20476;-74
2021/06/30 01:05:49;;;;;;;19.40;18.50;;;18.00;85.70;;;;;;5058864;28;20839;-74
2021/06/30 01:08:16;;;;;;;19.80;18.60;;;18.00;84.30;;;;;;5055228;28;20951;-73
2021/06/30 01:10:44;;;;;;;19.63;18.73;;;18.00;84.10;;;;;;5055522;28;20473;-74
2021/06/30 01:13:11;;;;;;;20.77;19.67;;;18.10;83.70;;;;;;5054420;28;20459;-73
2021/06/30 01:15:54;;;;;;;20.07;19.17;;;18.10;83.40;;;;;;5062264;28;20485;-73
2021/06/30 01:18:22;;;;;;;20.00;18.97;;;18.10;83.30;;;;;;5057002;28;20477;-73
2021/06/30 01:20:49;;;;;;;20.00;18.90;;;18.10;83.10;;;;;;5058897;28;20910;-73
2021/06/30 01:23:18;;;;;;;20.17;19.07;;;18.10;82.80;;;;;;5052261;28;20468;-76
2021/06/30 01:25:45;;;;;;;20.47;19.30;;;18.10;82.70;;;;;;5055620;28;20483;-75
2021/06/30 01:28:13;;;;;;;20.10;19.10;;;18.00;82.70;;;;;;5049288;28;20560;-75
2021/06/30 01:30:40;;;;;;;20.30;19.17;;;18.10;82.50;;;;;;5058966;28;20455;-78
2021/06/30 01:33:07;;;;;;;20.80;19.70;;;18.00;82.50;;;;;;5051666;28;21048;-75
2021/06/30 01:35:35;;;;;;;20.77;19.73;;;18.10;82.60;;;;;;5051388;28;20815;-76
2021/06/30 01:38:03;;;;;;;20.60;19.50;;;18.00;82.30;;;;;;5060471;28;20461;-75
2021/06/30 01:40:32;;;;;;;20.50;19.50;;;18.00;82.50;;;;;;5050681;28;20460;-77
2021/06/30 01:43:00;;;;;;;20.67;19.30;;;17.90;83.00;;;;;;5053554;28;20465;-75
2021/06/30 01:45:27;;;;;;;19.90;19.00;;;17.90;83.60;;;;;;5057559;28;20478;-78
2021/06/30 01:47:55;;;;;;;20.03;19.07;;;17.90;83.70;;;;;;5052233;28;21041;-75
2021/06/30 01:50:22;;;;;;;20.00;18.90;;;17.90;83.60;;;;;;5056111;28;20469;-75
2021/06/30 01:52:49;;;;;;;19.40;18.50;;;17.80;84.40;;;;;;5055480;28;20528;-76
2021/06/30 01:55:16;;;;;;;19.27;18.30;;;17.70;84.60;;;;;;5060634;28;20477;-75
2021/06/30 01:57:47;;;;;;;19.40;18.40;;;17.70;85.10;;;;;;5052889;28;20459;-75
2021/06/30 02:00:16;;;;;;;18.90;18.00;;;17.70;85.40;;;;;;5056942;28;20462;-78
2021/06/30 02:02:45;;;;;;;18.90;18.00;;;17.60;86.40;;;;;;5054679;28;20452;-75
2021/06/30 02:05:14;;;;;;;19.53;18.30;;;17.50;86.40;;;;;;5055011;28;22245;-75
2021/06/30 02:07:44;;;;;;;19.30;18.33;;;17.50;86.60;;;;;;5055842;28;20479;-75
2021/06/30 02:10:12;;;;;;;19.77;18.60;;;17.40;86.50;;;;;;5053531;28;20591;-75
2021/06/30 02:12:39;;;;;;;18.77;17.77;;;17.30;87.40;;;;;;5057131;28;20948;-75
2021/06/30 02:15:14;;;;;;;18.60;17.50;;;17.30;87.70;;;;;;5053113;28;20488;-77
2021/06/30 02:17:41;;;;;;;19.27;18.27;;;17.30;87.40;;;;;;5053826;28;20450;-75
2021/06/30 02:20:10;;;;;;;17.87;17.07;;;17.20;86.70;;;;;;5056302;28;20545;-75
2021/06/30 02:22:38;;;;;;;18.30;17.50;;;17.20;88.00;;;;;;5053887;28;20459;-77
2021/06/30 02:25:07;;;;;;;19.37;18.40;;;17.10;87.90;;;;;;5044627;28;20481;-75
2021/06/30 02:27:34;;;;;;;17.90;17.10;;;17.00;87.40;;;;;;5050338;28;21029;-75
2021/06/30 02:30:01;;;;;;;18.33;17.43;;;17.00;87.80;;;;;;5051160;28;20849;-76
2021/06/30 02:32:29;;;;;;;18.03;17.13;;;16.90;87.20;;;;;;5052635;28;20458;-76
2021/06/30 02:34:56;;;;;;;18.93;18.03;;;16.90;87.10;;;;;;5056923;28;20486;-75
2021/06/30 02:37:24;;;;;;;18.57;17.60;;;16.90;86.10;;;;;;5055422;28;20467;-75
2021/06/30 02:39:50;;;;;;;18.57;17.57;;;16.90;86.10;;;;;;5061382;28;20468;-75
2021/06/30 02:42:17;;;;;;;18.60;17.70;;;16.80;86.80;;;;;;5054186;28;21080;-75
2021/06/30 02:44:44;;;;;;;19.10;18.10;;;16.70;86.10;;;;;;5049823;28;20485;-75
2021/06/30 02:47:11;;;;;;;18.30;17.40;;;16.60;86.10;;;;;;5053598;28;20834;-75
2021/06/30 02:49:39;;;;;;;18.37;17.47;;;16.60;86.10;;;;;;5058315;28;20459;-75
2021/06/30 02:52:07;;;;;;;19.33;17.77;;;16.60;86.30;;;;;;5053617;28;20459;-75
2021/06/30 02:54:34;;;;;;;19.10;18.20;;;16.50;86.10;;;;;;5059283;28;20489;-76
2021/06/30 02:57:01;;;;;;;18.90;18.00;;;16.50;85.60;;;;;;5056410;28;20458;-75
2021/06/30 02:59:28;;;;;;;19.53;18.53;;;16.50;85.80;;;;;;5059386;28;20461;-76
2021/06/30 03:01:55;;;;;;;19.03;18.13;;;16.50;85.70;;;;;;5058184;28;20458;-75
2021/06/30 03:04:21;;;;;;;20.37;19.40;;;16.50;85.20;;;;;;5051741;28;20482;-75
2021/06/30 03:06:50;;;;;;;19.60;18.60;;;16.50;85.10;;;;;;5055163;28;20597;-77
2021/06/30 03:09:18;;;;;;;19.20;18.20;;;16.50;85.50;;;;;;5059757;28;20623;-75
2021/06/30 03:11:46;;;;;;;19.73;18.73;;;16.50;85.60;;;;;;5059077;28;20512;-75
2021/06/30 03:14:12;;;;;;;20.70;19.60;;;16.40;84.40;;;;;;5056070;28;20478;-75
2021/06/30 03:16:39;;;;;;;20.00;19.00;;;16.40;84.70;;;;;;5058455;28;20541;-77
2021/06/30 03:19:06;;;;;;;19.50;18.50;;;16.30;85.00;;;;;;5058363;28;20545;-75
2021/06/30 03:21:33;;;;;;;19.87;18.87;;;16.30;85.30;;;;;;5051825;28;20528;-76
2021/06/30 03:24:02;;;;;;;20.97;19.97;;;16.30;84.40;;;;;;5047076;28;20485;-76
2021/06/30 03:26:29;;;;;;;22.07;21.00;;;16.30;84.80;;;;;;5052602;28;20482;-75
2021/06/30 03:28:56;;;;;;;23.00;21.90;;;16.20;84.40;;;;;;5053840;28;20458;-76
2021/06/30 03:31:23;;;;;;;19.23;18.33;;;16.20;85.10;;;;;;5057101;28;20466;-75
2021/06/30 03:33:50;;;;;;;22.17;21.13;;;16.20;85.70;;;;;;5046444;28;20470;-75
2021/06/30 03:36:16;;;;;;;19.93;18.97;;;16.20;85.90;;;;;;5053041;28;20469;-75
2021/06/30 03:38:43;;;;;;;19.80;18.60;;;16.30;86.00;;;;;;5066420;28;20457;-75
2021/06/30 03:41:12;;;;;;;21.40;20.40;;;16.20;86.20;;;;;;5067030;28;20469;-76
2021/06/30 03:43:39;;;;;;;20.03;19.13;;;16.20;86.20;;;;;;5053346;28;20465;-75
2021/06/30 03:46:05;;;;;;;25.33;24.23;;;16.10;85.70;;;;;;5057537;28;20462;-75
2021/06/30 03:48:32;;;;;;;20.10;19.10;;;16.10;85.40;;;;;;5061888;28;20484;-74
2021/06/30 03:50:59;;;;;;;20.00;19.00;;;16.10;85.40;;;;;;5063464;28;20965;-76
2021/06/30 03:53:26;;;;;;;24.43;23.40;;;16.10;85.80;;;;;;5056283;28;20946;-76
2021/06/30 03:55:53;;;;;;;19.20;18.30;;;16.10;85.70;;;;;;5061450;28;21090;-75
2021/06/30 03:58:21;;;;;;;19.00;18.10;;;16.20;85.30;;;;;;5061018;28;20458;-75
2021/06/30 04:00:48;;;;;;;20.50;19.50;;;16.10;85.90;;;;;;5056068;28;20462;-73
2021/06/30 04:03:18;;;;;;;22.10;21.00;;;16.10;85.60;;;;;;5055344;28;21549;-73
2021/06/30 04:05:45;;;;;;;19.97;18.97;;;16.20;85.20;;;;;;5062578;28;20962;-73
2021/06/30 04:08:13;;;;;;;20.00;19.00;;;16.20;85.30;;;;;;5061103;28;20481;-74
2021/06/30 04:10:40;;;;;;;22.30;21.20;;;16.20;85.40;;;;;;5062227;28;20469;-76
2021/06/30 04:13:08;;;;;;;23.13;21.93;;;16.10;85.60;;;;;;5056988;28;20472;-76
2021/06/30 04:15:37;;;;;;;20.60;19.60;;;16.10;86.10;;;;;;5060397;28;20565;-75
2021/06/30 04:18:05;;;;;;;20.10;19.10;;;16.20;85.50;;;;;;5062845;28;21059;-77
2021/06/30 04:20:33;;;;;;;21.57;20.27;;;16.30;85.20;;;;;;5061463;28;20471;-76
2021/06/30 04:23:00;;;;;;;23.80;22.63;;;16.30;84.50;;;;;;5061384;28;20454;-76
2021/06/30 04:25:27;;;;;;;20.70;19.60;;;16.20;84.90;;;;;;5062574;28;20478;-79
2021/06/30 04:27:54;;;;;;;21.07;19.90;;;16.30;84.80;;;;;;5053623;28;20479;-75
2021/06/30 04:30:21;;;;;;;23.10;21.80;;;16.20;84.40;;;;;;5054554;28;20806;-75
2021/06/30 04:32:49;;;;;;;23.47;22.27;;;16.20;84.80;;;;;;5060285;28;20454;-75
2021/06/30 04:35:16;;;;;;;20.73;19.63;;;16.30;85.00;;;;;;5056596;28;20497;-76
2021/06/30 04:37:43;;;;;;;20.57;19.57;;;16.40;84.00;;;;;;5065981;28;20468;-78
2021/06/30 04:40:10;;;;;;;22.97;21.87;;;16.40;84.30;;;;;;5051659;28;20568;-78
2021/06/30 04:42:37;;;;;;;19.83;18.93;;;16.50;84.10;;;;;;5060570;28;20470;-75
2021/06/30 04:45:05;;;;;;;22.50;21.40;;;16.60;84.50;;;;;;5058226;28;20484;-76
2021/06/30 04:47:32;;;;;;;23.77;21.90;;;16.60;83.80;;;;;;5053532;28;20478;-76
2021/06/30 04:50:00;;;;;;;20.73;19.53;;;16.50;84.00;;;;;;5061982;28;20455;-76
2021/06/30 04:52:27;;;;;;;20.70;19.40;;;16.60;84.20;;;;;;5056560;28;20470;-74
2021/06/30 04:54:54;;;;;;;22.63;21.00;;;16.60;84.20;;;;;;5060023;28;21245;-74
2021/06/30 04:57:21;;;;;;;21.87;20.77;;;16.70;83.80;;;;;;5056167;28;21220;-82
2021/06/30 04:59:48;;;;;;;22.30;21.07;;;16.80;83.60;;;;;;5054673;28;20715;-73
2021/06/30 05:02:15;;;;;;;21.37;20.33;;;16.80;83.50;;;;;;5054869;28;20681;-73
2021/06/30 05:04:42;;;;;;;21.47;20.37;;;16.90;83.50;;;;;;5057108;28;20470;-73
2021/06/30 05:07:10;;;;;;;22.73;21.53;;;16.90;83.20;;;;;;5052639;28;20564;-74
2021/06/30 05:09:37;;;;;;;22.93;21.70;;;17.00;83.50;;;;;;5056711;28;20463;-74
2021/06/30 05:12:05;;;;;;;23.15;21.85;;;17.20;83.30;;;;;;5056947;28;20534;-75
2021/06/30 05:14:32;;;;;;;22.80;21.50;;;17.30;82.20;;;;;;5050897;28;20237;-75
2021/06/30 05:17:00;;;;;;;22.97;21.77;;;17.50;81.70;;;;;;5054899;28;20470;-76
2021/06/30 05:19:27;;;;;;;25.20;24.00;;;17.50;81.30;;;;;;5058914;28;20496;-76
2021/06/30 05:21:54;;;;;;;24.50;23.20;;;17.70;80.90;;;;;;5053017;28;20465;-73
2021/06/30 05:24:23;;;;;;;21.67;20.50;;;17.80;80.00;;;;;;5056200;28;20471;-75
2021/06/30 05:26:50;;;;;;;25.50;24.20;;;18.00;78.40;;;;;;5046587;28;20215;-75
2021/06/30 05:29:17;;;;;;;23.90;22.70;;;18.10;78.80;;;;;;5056107;28;20468;-74
2021/06/30 05:31:44;;;;;;;23.37;22.07;;;18.20;78.10;;;;;;5060149;28;20538;-74
2021/06/30 05:34:11;;;;;;;23.47;22.27;;;18.20;78.20;;;;;;5060526;28;20483;-76
2021/06/30 05:36:38;;;;;;;22.50;21.20;;;18.30;78.10;;;;;;5048184;28;20463;-75
2021/06/30 05:39:05;;;;;;;23.30;22.00;;;18.50;78.10;;;;;;5047237;28;20702;-75
2021/06/30 05:41:33;;;;;;;24.50;23.10;;;18.60;78.00;;;;;;5050102;28;20498;-74
2021/06/30 05:44:00;;;;;;;24.87;23.33;;;18.80;77.50;;;;;;5044198;28;20844;-74
2021/06/30 05:46:27;;;;;;;25.40;24.20;;;18.80;77.00;;;;;;5043662;28;20462;-73
2021/06/30 05:48:54;;;;;;;26.87;25.53;;;19.00;76.90;;;;;;5052816;28;20474;-73
2021/06/30 06:02:23;;;;;;;25.20;23.80;;;19.30;74.60;;;;;;5047859;28;20426;-73
2021/06/30 06:04:51;;;;;;;24.93;23.63;;;19.40;74.80;;;;;;5057555;28;20478;-74
2021/06/30 06:07:18;;;;;;;24.80;23.47;;;19.70;73.60;;;;;;5058608;28;20489;-73
2021/06/30 06:09:45;;;;;;;28.00;26.40;;;19.80;73.20;;;;;;5063076;28;20805;-74
2021/06/30 06:12:12;;;;;;;25.20;23.80;;;19.70;73.10;;;;;;5051138;28;20458;-74
2021/06/30 06:14:39;;;;;;;25.07;23.77;;;19.70;73.50;;;;;;5059956;28;20486;-74
2021/06/30 06:17:06;;;;;;;27.20;25.70;;;19.70;74.10;;;;;;5060420;28;20547;-74
2021/06/30 06:19:33;;;;;;;28.10;26.70;;;19.70;73.30;;;;;;5059471;28;20466;-74
2021/06/30 06:22:04;;;;;;;26.30;24.90;;;19.70;73.50;;;;;;5051567;28;20860;-73
2021/06/30 06:24:31;;;;;;;26.70;25.20;;;19.70;73.40;;;;;;5050275;28;20481;-73
2021/06/30 06:26:58;;;;;;;28.00;26.50;;;19.70;73.70;;;;;;5061334;28;20461;-73
2021/06/30 06:29:25;;;;;;;26.90;25.50;;;19.80;72.00;;;;;;5061589;28;20470;-72
2021/06/30 06:31:53;;;;;;;26.50;25.10;;;19.70;72.50;;;;;;5053089;28;20463;-72
2021/06/30 06:34:20;;;;;;;27.33;25.83;;;19.90;71.90;;;;;;5054232;28;20540;-73
2021/06/30 06:36:48;;;;;;;26.00;24.60;;;20.00;72.40;;;;;;5057841;28;20464;-72
2021/06/30 06:39:18;;;;;;;27.30;25.70;;;20.20;71.00;;;;;;5060234;28;20581;-72
2021/06/30 06:41:45;;;;;;;27.30;25.90;;;20.20;70.40;;;;;;5056040;28;20549;-72
2021/06/30 06:44:13;;;;;;;26.60;25.17;;;20.20;70.30;;;;;;5056563;28;20521;-72
2021/06/30 06:46:40;;;;;;;27.00;25.60;;;20.20;69.40;;;;;;5059487;28;20461;-72
2021/06/30 06:49:09;;;;;;;26.13;24.73;;;20.20;69.20;;;;;;5063001;28;20482;-72
2021/06/30 06:51:37;;;;;;;25.20;23.80;;;20.30;69.90;;;;;;5059479;28;20461;-73
2021/06/30 06:54:04;;;;;;;26.07;24.67;;;20.30;69.90;;;;;;5049564;28;20577;-73
2021/06/30 06:56:33;;;;;;;25.70;24.23;;;20.60;69.10;;;;;;5049718;28;20458;-73
2021/06/30 06:59:00;;;;;;;26.30;24.90;;;20.60;68.40;;;;;;5062682;28;20966;-73
2021/06/30 07:01:27;;;;;;;27.27;25.77;;;20.60;68.40;;;;;;5060552;28;20462;-73
2021/06/30 07:03:54;;;;;;;26.67;25.27;;;20.70;67.90;;;;;;5045832;28;20559;-74
2021/06/30 07:06:21;;;;;;;27.27;25.77;;;20.60;69.40;;;;;;5055061;28;20553;-72
2021/06/30 07:08:48;;;;;;;26.30;25.00;;;20.60;69.40;;;;;;5062262;28;20510;-73
2021/06/30 07:11:16;;;;;;;32.10;30.50;;;20.90;68.60;;;;;;5066014;28;20542;-72
2021/06/30 07:13:44;;;;;;;26.37;24.77;;;20.90;68.20;;;;;;5050100;28;20458;-72
2021/06/30 07:16:11;;;;;;;26.90;25.40;;;21.00;67.30;;;;;;5053976;28;20474;-72
2021/06/30 07:18:38;;;;;;;26.17;24.80;;;21.20;66.80;;;;;;5048488;28;20446;-72
2021/06/30 07:21:08;;;;;;;24.90;23.70;;;21.40;65.90;;;;;;5062239;28;20461;-73
2021/06/30 07:23:35;;;;;;;26.90;25.40;;;21.50;65.90;;;;;;5062675;28;20490;-74
2021/06/30 07:26:03;;;;;;;26.30;24.90;;;21.60;64.80;;;;;;5058987;28;20450;-73
2021/06/30 07:28:30;;;;;;;27.03;25.13;;;21.70;64.70;;;;;;5059253;28;20483;-74
2021/06/30 07:31:08;;;;;;;26.37;24.73;;;21.70;64.70;;;;;;5057360;28;21608;-73
2021/06/30 07:33:37;;;;;;;26.00;24.50;;;21.80;64.30;;;;;;5067230;28;20531;-73
2021/06/30 07:36:04;;;;;;;27.23;25.50;;;22.00;63.10;;;;;;5062146;28;20516;-73
2021/06/30 07:38:31;;;;;;;26.27;24.87;;;22.00;63.40;;;;;;5062374;28;20462;-73
2021/06/30 07:40:58;;;;;;;27.13;25.73;;;22.20;62.90;;;;;;5055350;28;21032;-75
2021/06/30 07:43:25;;;;;;;26.90;25.00;;;22.30;61.40;;;;;;5067312;28;20445;-72
2021/06/30 07:45:52;;;;;;;26.80;25.07;;;22.30;62.30;;;;;;5052460;28;20476;-74
2021/06/30 07:48:21;;;;;;;26.53;25.03;;;22.30;61.40;;;;;;5066965;28;20488;-74
2021/06/30 07:50:48;;;;;;;28.20;26.30;;;22.30;60.30;;;;;;5064673;28;20512;-74
2021/06/30 07:53:15;;;;;;;25.50;24.10;;;22.30;61.10;;;;;;5047772;28;20465;-75
2021/06/30 07:55:43;;;;;;;26.50;25.00;;;22.20;60.50;;;;;;5058296;28;20481;-76
2021/06/30 07:58:09;;;;;;;28.27;26.67;;;22.00;61.00;;;;;;5066097;28;20446;-74
2021/06/30 08:00:36;;;;;;;29.57;27.53;;;22.10;61.90;;;;;;5062295;28;20459;-74
2021/06/30 08:03:04;;;;;;;28.23;26.10;;;22.30;62.30;;;;;;5049250;28;20465;-74
2021/06/30 08:05:33;;;;;;;26.73;25.13;;;22.60;60.10;;;;;;5050676;28;20568;-73
2021/06/30 08:08:00;;;;;;;26.70;25.20;;;22.50;60.00;;;;;;5069242;28;20488;-74
2021/06/30 08:10:27;;;;;;;28.43;26.13;;;22.50;60.10;;;;;;5049197;28;20463;-76
2021/06/30 08:12:54;;;;;;;27.00;25.40;;;22.60;60.40;;;;;;5066110;28;20454;-76
2021/06/30 08:15:21;;;;;;;29.33;26.20;;;22.60;60.60;;;;;;5066008;28;20478;-75
2021/06/30 08:17:49;;;;;;;29.70;27.10;;;22.60;61.50;;;;;;5065014;28;20478;-75
2021/06/30 08:20:16;;;;;;;27.60;25.80;;;22.70;61.30;;;;;;5059231;28;20466;-75
2021/06/30 08:22:45;;;;;;;29.60;27.63;;;22.70;60.90;;;;;;5053211;28;20519;-75
2021/06/30 08:25:12;;;;;;;29.70;27.70;;;22.60;61.70;;;;;;5066724;28;20484;-75
2021/06/30 08:27:39;;;;;;;28.57;26.57;;;22.60;62.50;;;;;;5058886;28;21338;-74
2021/06/30 08:30:08;;;;;;;30.57;27.77;;;22.60;62.00;;;;;;5064032;28;20486;-75
2021/06/30 08:32:35;;;;;;;28.40;26.20;;;22.50;61.80;;;;;;5062700;28;20450;-78
2021/06/30 08:35:02;;;;;;;27.90;26.30;;;22.30;61.70;;;;;;5061985;28;20488;-74
2021/06/30 08:37:33;;;;;;;27.83;26.23;;;22.30;62.00;;;;;;5062545;28;20455;-75
2021/06/30 08:40:01;;;;;;;27.00;25.30;;;22.30;62.10;;;;;;5055827;28;20501;-73
2021/06/30 08:42:28;;;;;;;27.97;26.30;;;22.40;61.70;;;;;;5046403;28;20459;-74
2021/06/30 08:44:55;;;;;;;28.90;27.40;;;22.40;61.50;;;;;;5052891;28;20481;-73
2021/06/30 08:47:24;;;;;;;27.87;26.37;;;22.30;61.00;;;;;;5058070;28;20465;-72
2021/06/30 08:49:52;;;;;;;30.00;28.40;;;21.40;63.10;;;;;;5055896;28;20485;-74
2021/06/30 08:52:20;;;;;;;29.37;27.67;;;21.00;64.70;;;;;;5047290;28;20550;-74
2021/06/30 08:54:47;;;;;;;28.53;26.97;;;21.00;64.70;;;;;;5059674;28;20574;-73
2021/06/30 08:57:18;;;;;;;29.33;27.73;;;21.00;63.00;;;;;;5058745;28;20470;-75
2021/06/30 08:59:45;;;;;;;26.77;25.30;;;20.70;64.10;;;;;;5046079;28;21035;-75
2021/06/30 09:02:12;;;;;;;30.30;28.50;;;20.40;65.40;;;;;;5051778;28;20469;-75
2021/06/30 09:04:45;;;;;;;27.87;26.03;;;20.70;65.70;;;;;;5047212;28;20481;-76
2021/06/30 09:07:13;;;;;;;29.43;27.63;;;20.80;65.50;;;;;;5058534;28;20598;-74
2021/06/30 09:09:42;;;;;;;26.90;25.50;;;20.50;64.70;;;;;;5052938;28;20507;-74
2021/06/30 09:12:11;;;;;;;27.40;25.90;;;20.20;65.60;;;;;;5055232;28;20493;-74
2021/06/30 09:14:40;;;;;;;26.67;25.10;;;20.10;65.50;;;;;;5072414;28;20573;-75
2021/06/30 09:20:06;;;;;;;26.50;25.00;;;20.50;65.30;;;;;;5064777;28;20523;-74
2021/06/30 09:22:52;;;;;;;26.53;25.03;;;20.70;64.30;;;;;;5057542;28;20564;-74
2021/06/30 09:25:31;;;;;;;26.80;24.90;;;20.80;64.20;;;;;;5054364;28;20481;-76
2021/06/30 09:27:59;;;;;;;26.87;25.07;;;21.00;64.30;;;;;;5057952;28;20464;-74
2021/06/30 09:30:27;;;;;;;26.27;24.87;;;21.20;62.80;;;;;;5064929;28;20473;-74
2021/06/30 09:32:59;;;;;;;27.90;26.40;;;21.10;62.50;;;;;;5056107;28;20458;-75
2021/06/30 09:35:29;;;;;;;30.37;27.47;;;21.00;63.20;;;;;;5060173;28;20944;-74
2021/06/30 09:38:00;;;;;;;27.37;25.97;;;21.00;62.20;;;;;;5056585;28;20458;-75
2021/06/30 09:40:44;;;;;;;28.43;26.83;;;21.20;62.50;;;;;;5052730;28;20463;-75
2021/06/30 09:43:28;;;;;;;29.07;27.47;;;21.60;61.50;;;;;;5063584;28;20453;-75
2021/06/30 09:45:59;;;;;;;28.47;26.87;;;21.90;61.00;;;;;;5060924;28;20458;-74
2021/06/30 09:48:33;;;;;;;28.50;27.00;;;22.20;61.40;;;;;;5062623;28;20454;-74
2021/06/30 09:51:02;;;;;;;26.13;24.63;;;21.80;60.20;;;;;;5059420;28;20469;-74
2021/06/30 09:53:45;;;;;;;28.97;27.07;;;21.90;61.10;;;;;;5059060;28;20454;-74
2021/06/30 09:58:59;;;;;;;26.63;25.23;;;21.40;61.10;;;;;;5050176;28;20503;-72
2021/06/30 10:01:27;;;;;;;27.50;25.90;;;20.60;65.20;;;;;;5047379;28;21020;-73
2021/06/30 10:03:54;;;;;;;27.10;25.70;;;20.40;67.70;;;;;;5061024;28;20483;-73
2021/06/30 10:06:28;;;;;;;26.03;24.63;;;20.40;68.40;;;;;;5060171;28;20469;-72
2021/06/30 10:08:57;;;;;;;26.77;25.37;;;20.60;69.50;;;;;;5063754;28;20488;-73
2021/06/30 10:11:24;;;;;;;26.60;25.20;;;20.90;69.10;;;;;;5054937;28;20467;-73
2021/06/30 10:13:51;;;;;;;26.60;25.20;;;21.00;65.30;;;;;;5045532;28;21026;-73
2021/06/30 10:16:19;;;;;;;27.40;26.00;;;20.90;67.20;;;;;;5061900;28;20457;-72
2021/06/30 10:18:50;;;;;;;26.60;25.00;;;20.90;66.20;;;;;;5059981;28;20467;-72
2021/06/30 10:21:20;;;;;;;27.20;25.70;;;21.10;66.50;;;;;;5055598;28;20446;-74
2021/06/30 10:23:47;;;;;;;26.90;25.40;;;21.50;64.30;;;;;;5058268;28;21072;-72
2021/06/30 10:26:15;;;;;;;26.90;25.50;;;21.80;63.70;;;;;;5063269;28;20454;-72
2021/06/30 10:28:43;;;;;;;27.00;25.60;;;21.70;64.90;;;;;;5078497;28;20473;-72
2021/06/30 10:31:10;;;;;;;27.00;25.50;;;21.80;60.90;;;;;;5047858;28;20572;-73
2021/06/30 10:33:40;;;;;;;29.83;28.20;;;21.80;61.50;;;;;;5061203;28;20450;-73
2021/06/30 10:36:09;;;;;;;26.57;25.07;;;22.10;61.70;;;;;;5054229;28;20520;-72
2021/06/30 10:38:51;;;;;;;27.90;26.30;;;22.30;60.20;;;;;;5049558;28;20479;-72
2021/06/30 10:41:42;;;;;;;26.80;25.40;;;22.30;59.80;;;;;;5062477;28;21029;-70
2021/06/30 10:44:14;;;;;;;27.57;26.07;;;22.20;58.80;;;;;;5064391;28;20480;-71
2021/06/30 10:46:42;;;;;;;26.70;25.30;;;22.00;58.50;;;;;;5054379;28;20881;-71
2021/06/30 10:49:33;;;;;;;28.00;26.40;;;21.90;60.10;;;;;;5071045;28;21047;-71
2021/06/30 10:52:02;;;;;;;26.90;25.50;;;22.10;58.90;;;;;;5053395;28;20467;-71
2021/06/30 10:54:42;;;;;;;28.60;27.00;;;22.20;59.10;;;;;;5044286;28;20470;-72
2021/06/30 10:57:25;;;;;;;26.60;25.10;;;22.30;59.30;;;;;;5054889;28;20468;-73
2021/06/30 11:00:17;;;;;;;27.00;25.50;;;22.20;59.50;;;;;;5059701;28;20454;-72
2021/06/30 11:02:45;;;;;;;29.67;27.87;;;22.10;60.00;;;;;;5058223;28;20462;-72
2021/06/30 11:05:35;;;;;;;28.00;26.40;;;21.50;60.00;;;;;;5061820;28;20478;-72
2021/06/30 11:08:03;;;;;;;26.80;25.40;;;20.90;62.40;;;;;;5059555;28;20462;-72
2021/06/30 11:10:49;;;;;;;27.00;25.50;;;20.80;62.90;;;;;;5059186;28;20742;-72
2021/06/30 11:13:16;;;;;;;29.37;27.73;;;20.80;63.80;;;;;;5053113;28;20964;-72
2021/06/30 11:15:44;;;;;;;28.27;26.77;;;20.80;63.40;;;;;;5059160;28;20477;-73
2021/06/30 11:18:43;;;;;;;27.37;25.87;;;21.00;62.50;;;;;;5044040;28;20537;-72
2021/06/30 11:21:13;;;;;;;28.57;26.97;;;21.00;63.00;;;;;;5057001;28;20470;-72
2021/06/30 11:23:43;;;;;;;28.17;26.67;;;21.00;61.70;;;;;;5059142;28;20460;-73
2021/06/30 11:26:35;;;;;;;27.13;25.43;;;21.10;61.80;;;;;;5050832;28;20570;-73
2021/06/30 11:29:26;;;;;;;28.30;26.57;;;21.30;61.50;;;;;;5081501;28;20476;-73
2021/06/30 11:31:54;;;;;;;28.63;26.93;;;21.80;61.60;;;;;;5059135;28;20464;-79
2021/06/30 11:34:22;;;;;;;27.97;25.70;;;22.20;59.60;;;;;;5061610;28;20626;-76
2021/06/30 11:36:50;;;;;;;28.20;26.03;;;22.40;57.60;;;;;;5062620;28;20474;-79
2021/06/30 11:39:20;;;;;;;28.57;27.03;;;22.70;56.90;;;;;;5049133;28;20459;-77
2021/06/30 11:41:49;;;;;;;27.10;25.17;;;22.80;55.90;;;;;;5060136;28;20969;-77
2021/06/30 11:44:18;;;;;;;27.50;26.00;;;22.90;56.10;;;;;;5063160;28;20489;-72
2021/06/30 11:46:46;;;;;;;27.73;26.13;;;22.70;56.90;;;;;;5053120;28;20467;-74
2021/06/30 11:49:19;;;;;;;28.97;27.37;;;22.70;57.80;;;;;;5053649;28;20481;-76
2021/06/30 11:51:59;;;;;;;27.20;25.70;;;22.50;58.40;;;;;;5054603;28;20468;-74
2021/06/30 11:54:29;;;;;;;26.20;24.60;;;22.30;59.40;;;;;;5064246;28;21278;-76
2021/06/30 11:56:56;;;;;;;27.17;25.50;;;22.30;60.50;;;;;;5059889;28;20458;-78
2021/06/30 11:59:27;;;;;;;29.03;27.40;;;22.30;62.40;;;;;;5062292;28;21003;-76
2021/06/30 12:01:55;;;;;;;28.20;26.50;;;22.10;65.50;;;;;;5059720;28;20464;-75
2021/06/30 12:04:25;;;;;;;28.70;26.93;;;21.90;67.10;;;;;;5062560;28;21987;-73
2021/06/30 12:06:57;;;;;;;26.80;25.10;;;21.90;67.70;;;;;;5060247;28;21123;-73
2021/06/30 12:09:28;;;;;;;28.57;26.87;;;21.80;69.10;;;;;;5055609;28;20485;-74
2021/06/30 12:11:57;;;;;;;27.03;25.30;;;22.00;70.40;;;;;;5064025;28;20465;-73
2021/06/30 12:14:25;;;;;;;26.00;24.47;;;22.30;71.30;;;;;;5056253;28;20490;-74
2021/06/30 12:16:59;;;;;;;30.13;28.13;;;22.60;69.60;;;;;;5054555;28;20470;-73
2021/06/30 12:19:40;;;;;;;29.67;28.07;;;22.90;70.20;;;;;;5059463;28;20457;-73
2021/06/30 12:22:22;;;;;;;27.53;25.93;;;23.30;67.90;;;;;;5058428;28;20454;-73
2021/06/30 12:24:53;;;;;;;27.30;25.70;;;23.60;67.50;;;;;;5052394;28;21079;-74
2021/06/30 12:27:21;;;;;;;28.00;26.40;;;24.10;65.90;;;;;;5058500;28;20458;-73
2021/06/30 12:29:58;;;;;;;26.37;24.90;;;24.10;65.70;;;;;;5063868;28;20502;-74
2021/06/30 12:32:28;;;;;;;27.87;26.17;;;24.10;65.50;;;;;;5057233;28;20462;-74
2021/06/30 12:35:04;;;;;;;27.10;25.60;;;24.00;65.60;;;;;;5054181;28;20493;-74
2021/06/30 12:37:32;;;;;;;26.37;24.90;;;23.80;64.40;;;;;;5046330;28;20484;-74
2021/06/30 12:40:03;;;;;;;28.80;27.20;;;23.60;66.00;;;;;;5056647;28;20488;-74
2021/06/30 12:42:49;;;;;;;27.30;25.70;;;23.50;66.20;;;;;;5060567;28;20458;-73
2021/06/30 12:45:17;;;;;;;27.20;25.70;;;23.60;64.20;;;;;;5060394;28;20510;-73
2021/06/30 12:47:53;;;;;;;27.10;25.60;;;23.50;64.30;;;;;;5062102;28;20466;-73
2021/06/30 12:50:29;;;;;;;26.90;25.40;;;23.50;64.30;;;;;;5059738;28;20474;-74
2021/06/30 12:53:01;;;;;;;29.77;28.00;;;23.70;64.10;;;;;;5045775;28;20470;-73
2021/06/30 12:55:28;;;;;;;27.27;25.70;;;23.90;63.00;;;;;;5055522;28;20486;-73